sensor_id;sensor_type;location;lat;lon;timestamp;P1;durP1;ratioP1;P2;durP2;ratioP2
16832;SDS011;8533;48.426;10.868;2024-01-06T00:01:19;13.13;;;7.70;;
16832;SDS011;8533;48.426;10.868;2024-01-06T00:03:44;14.00;;;7.63;;
16832;SDS011;8533;48.426;10.868;2024-01-06T00:06:13;13.43;;;7.80;;
16832;SDS011;8533;48.426;10.868;2024-01-06T00:08:39;13.30;;;7.50;;
16832;SDS011;8533;48.426;10.868;2024-01-06T00:11:04;13.60;;;6.97;;
16832;SDS011;8533;48.426;10.868;2024-01-06T00:13:29;11.37;;;6.50;;
16832;SDS011;8533;48.426;10.868;2024-01-06T00:15:55;13.33;;;7.37;;
16832;SDS011;8533;48.426;10.868;2024-01-06T00:18:20;16.37;;;8.37;;
16832;SDS011;8533;48.426;10.868;2024-01-06T00:20:45;15.90;;;8.30;;
16832;SDS011;8533;48.426;10.868;2024-01-06T00:23:11;14.80;;;8.13;;
16832;SDS011;8533;48.426;10.868;2024-01-06T00:25:36;13.60;;;7.40;;
16832;SDS011;8533;48.426;10.868;2024-01-06T00:28:01;16.80;;;9.90;;
16832;SDS011;8533;48.426;10.868;2024-01-06T00:30:27;13.63;;;8.33;;
16832;SDS011;8533;48.426;10.868;2024-01-06T00:32:52;15.33;;;8.67;;
16832;SDS011;8533;48.426;10.868;2024-01-06T00:35:17;12.87;;;7.67;;
16832;SDS011;8533;48.426;10.868;2024-01-06T00:37:43;13.13;;;8.37;;
16832;SDS011;8533;48.426;10.868;2024-01-06T00:40:08;13.27;;;8.63;;
16832;SDS011;8533;48.426;10.868;2024-01-06T00:42:34;16.87;;;8.40;;
16832;SDS011;8533;48.426;10.868;2024-01-06T00:44:59;14.93;;;9.07;;
16832;SDS011;8533;48.426;10.868;2024-01-06T00:47:24;14.30;;;8.43;;
16832;SDS011;8533;48.426;10.868;2024-01-06T00:49:50;17.03;;;9.73;;
16832;SDS011;8533;48.426;10.868;2024-01-06T00:52:15;16.60;;;10.40;;
16832;SDS011;8533;48.426;10.868;2024-01-06T00:54:40;14.63;;;9.20;;
16832;SDS011;8533;48.426;10.868;2024-01-06T00:57:06;13.67;;;9.17;;
16832;SDS011;8533;48.426;10.868;2024-01-06T00:59:31;17.03;;;10.07;;
16832;SDS011;8533;48.426;10.868;2024-01-06T01:01:56;18.13;;;9.63;;
16832;SDS011;8533;48.426;10.868;2024-01-06T01:04:22;15.93;;;9.07;;
16832;SDS011;8533;48.426;10.868;2024-01-06T01:06:47;16.23;;;9.23;;
16832;SDS011;8533;48.426;10.868;2024-01-06T01:09:12;15.97;;;9.90;;
16832;SDS011;8533;48.426;10.868;2024-01-06T01:11:39;18.37;;;9.30;;
16832;SDS011;8533;48.426;10.868;2024-01-06T01:14:04;16.50;;;9.63;;
16832;SDS011;8533;48.426;10.868;2024-01-06T01:16:30;15.77;;;9.60;;
16832;SDS011;8533;48.426;10.868;2024-01-06T01:18:57;20.27;;;11.00;;
16832;SDS011;8533;48.426;10.868;2024-01-06T01:21:22;14.80;;;9.57;;
16832;SDS011;8533;48.426;10.868;2024-01-06T01:23:47;17.17;;;10.57;;
16832;SDS011;8533;48.426;10.868;2024-01-06T01:26:13;20.17;;;10.57;;
16832;SDS011;8533;48.426;10.868;2024-01-06T01:28:38;14.63;;;10.10;;
16832;SDS011;8533;48.426;10.868;2024-01-06T01:31:03;18.03;;;10.27;;
16832;SDS011;8533;48.426;10.868;2024-01-06T01:33:29;18.60;;;9.87;;
16832;SDS011;8533;48.426;10.868;2024-01-06T01:35:54;16.93;;;9.40;;
16832;SDS011;8533;48.426;10.868;2024-01-06T01:38:19;18.80;;;10.13;;
16832;SDS011;8533;48.426;10.868;2024-01-06T01:40:44;19.00;;;10.23;;
16832;SDS011;8533;48.426;10.868;2024-01-06T01:43:19;16.23;;;8.90;;
16832;SDS011;8533;48.426;10.868;2024-01-06T01:45:45;17.93;;;9.77;;
16832;SDS011;8533;48.426;10.868;2024-01-06T01:48:18;18.40;;;10.13;;
16832;SDS011;8533;48.426;10.868;2024-01-06T01:50:44;17.10;;;10.03;;
16832;SDS011;8533;48.426;10.868;2024-01-06T01:53:10;17.80;;;9.97;;
16832;SDS011;8533;48.426;10.868;2024-01-06T01:55:37;19.57;;;9.93;;
16832;SDS011;8533;48.426;10.868;2024-01-06T01:58:02;18.67;;;10.10;;
16832;SDS011;8533;48.426;10.868;2024-01-06T02:00:28;17.33;;;9.93;;
16832;SDS011;8533;48.426;10.868;2024-01-06T02:02:53;14.87;;;9.13;;
16832;SDS011;8533;48.426;10.868;2024-01-06T02:05:19;17.77;;;8.83;;
16832;SDS011;8533;48.426;10.868;2024-01-06T02:07:44;16.77;;;8.47;;
16832;SDS011;8533;48.426;10.868;2024-01-06T02:10:10;14.80;;;8.50;;
16832;SDS011;8533;48.426;10.868;2024-01-06T02:12:35;17.00;;;8.10;;
16832;SDS011;8533;48.426;10.868;2024-01-06T02:15:00;18.77;;;8.60;;
16832;SDS011;8533;48.426;10.868;2024-01-06T02:17:26;15.57;;;8.07;;
16832;SDS011;8533;48.426;10.868;2024-01-06T02:19:51;13.87;;;7.57;;
16832;SDS011;8533;48.426;10.868;2024-01-06T02:22:16;12.97;;;7.83;;
16832;SDS011;8533;48.426;10.868;2024-01-06T02:24:41;16.10;;;8.43;;
16832;SDS011;8533;48.426;10.868;2024-01-06T02:27:07;15.53;;;8.93;;
16832;SDS011;8533;48.426;10.868;2024-01-06T02:29:32;14.67;;;8.23;;
16832;SDS011;8533;48.426;10.868;2024-01-06T02:31:57;12.43;;;8.13;;
16832;SDS011;8533;48.426;10.868;2024-01-06T02:34:23;17.77;;;9.13;;
16832;SDS011;8533;48.426;10.868;2024-01-06T02:36:49;20.80;;;10.30;;
16832;SDS011;8533;48.426;10.868;2024-01-06T02:39:14;15.57;;;8.97;;
16832;SDS011;8533;48.426;10.868;2024-01-06T02:41:39;16.87;;;8.10;;
16832;SDS011;8533;48.426;10.868;2024-01-06T02:44:05;12.93;;;7.77;;
16832;SDS011;8533;48.426;10.868;2024-01-06T02:46:30;15.07;;;8.17;;
16832;SDS011;8533;48.426;10.868;2024-01-06T02:48:55;16.17;;;8.60;;
16832;SDS011;8533;48.426;10.868;2024-01-06T02:51:20;14.07;;;8.07;;
16832;SDS011;8533;48.426;10.868;2024-01-06T02:53:46;16.23;;;7.93;;
16832;SDS011;8533;48.426;10.868;2024-01-06T02:56:11;14.87;;;7.90;;
16832;SDS011;8533;48.426;10.868;2024-01-06T02:58:37;14.93;;;7.60;;
16832;SDS011;8533;48.426;10.868;2024-01-06T03:01:02;12.50;;;7.20;;
16832;SDS011;8533;48.426;10.868;2024-01-06T03:03:28;12.80;;;7.40;;
16832;SDS011;8533;48.426;10.868;2024-01-06T03:05:53;17.93;;;7.30;;
16832;SDS011;8533;48.426;10.868;2024-01-06T03:08:18;12.03;;;6.07;;
16832;SDS011;8533;48.426;10.868;2024-01-06T03:10:43;13.03;;;7.00;;
16832;SDS011;8533;48.426;10.868;2024-01-06T03:13:09;11.97;;;6.37;;
16832;SDS011;8533;48.426;10.868;2024-01-06T03:15:34;10.93;;;6.27;;
16832;SDS011;8533;48.426;10.868;2024-01-06T03:17:59;12.30;;;6.90;;
16832;SDS011;8533;48.426;10.868;2024-01-06T03:20:25;11.60;;;5.70;;
16832;SDS011;8533;48.426;10.868;2024-01-06T03:22:50;7.70;;;4.80;;
16832;SDS011;8533;48.426;10.868;2024-01-06T03:25:15;9.90;;;4.47;;
16832;SDS011;8533;48.426;10.868;2024-01-06T03:27:41;8.93;;;4.70;;
16832;SDS011;8533;48.426;10.868;2024-01-06T03:30:06;10.63;;;4.13;;
16832;SDS011;8533;48.426;10.868;2024-01-06T03:32:32;5.10;;;3.27;;
16832;SDS011;8533;48.426;10.868;2024-01-06T03:34:57;7.83;;;3.33;;
16832;SDS011;8533;48.426;10.868;2024-01-06T03:37:22;6.17;;;3.50;;
16832;SDS011;8533;48.426;10.868;2024-01-06T03:39:48;6.80;;;3.13;;
16832;SDS011;8533;48.426;10.868;2024-01-06T03:42:13;8.33;;;3.30;;
16832;SDS011;8533;48.426;10.868;2024-01-06T03:44:38;5.93;;;3.30;;
16832;SDS011;8533;48.426;10.868;2024-01-06T03:47:03;3.73;;;2.50;;
16832;SDS011;8533;48.426;10.868;2024-01-06T03:49:29;6.53;;;2.70;;
16832;SDS011;8533;48.426;10.868;2024-01-06T03:51:54;4.50;;;2.17;;
16832;SDS011;8533;48.426;10.868;2024-01-06T03:54:19;3.87;;;2.37;;
16832;SDS011;8533;48.426;10.868;2024-01-06T03:56:45;5.50;;;2.70;;
16832;SDS011;8533;48.426;10.868;2024-01-06T03:59:10;7.97;;;3.00;;
16832;SDS011;8533;48.426;10.868;2024-01-06T04:01:35;9.47;;;3.13;;
16832;SDS011;8533;48.426;10.868;2024-01-06T04:04:03;4.60;;;2.60;;
16832;SDS011;8533;48.426;10.868;2024-01-06T04:06:29;5.03;;;2.60;;
16832;SDS011;8533;48.426;10.868;2024-01-06T04:08:56;6.33;;;2.83;;
16832;SDS011;8533;48.426;10.868;2024-01-06T04:11:22;4.50;;;2.33;;
16832;SDS011;8533;48.426;10.868;2024-01-06T04:13:47;7.53;;;3.07;;
16832;SDS011;8533;48.426;10.868;2024-01-06T04:16:12;7.57;;;3.70;;
16832;SDS011;8533;48.426;10.868;2024-01-06T04:18:38;8.07;;;3.23;;
16832;SDS011;8533;48.426;10.868;2024-01-06T04:21:03;9.50;;;3.63;;
16832;SDS011;8533;48.426;10.868;2024-01-06T04:23:30;7.10;;;3.33;;
16832;SDS011;8533;48.426;10.868;2024-01-06T04:25:55;8.87;;;2.60;;
16832;SDS011;8533;48.426;10.868;2024-01-06T04:28:20;4.30;;;2.77;;
16832;SDS011;8533;48.426;10.868;2024-01-06T04:30:46;3.83;;;2.57;;
16832;SDS011;8533;48.426;10.868;2024-01-06T04:33:11;3.60;;;1.90;;
16832;SDS011;8533;48.426;10.868;2024-01-06T04:35:36;7.37;;;2.53;;
16832;SDS011;8533;48.426;10.868;2024-01-06T04:38:02;4.40;;;2.10;;
16832;SDS011;8533;48.426;10.868;2024-01-06T04:40:27;3.43;;;2.60;;
16832;SDS011;8533;48.426;10.868;2024-01-06T04:42:52;4.27;;;2.70;;
16832;SDS011;8533;48.426;10.868;2024-01-06T04:45:18;3.83;;;2.93;;
16832;SDS011;8533;48.426;10.868;2024-01-06T04:47:44;6.10;;;2.37;;
16832;SDS011;8533;48.426;10.868;2024-01-06T04:50:10;5.33;;;2.50;;
16832;SDS011;8533;48.426;10.868;2024-01-06T04:52:35;7.47;;;3.80;;
16832;SDS011;8533;48.426;10.868;2024-01-06T04:55:00;5.90;;;3.00;;
16832;SDS011;8533;48.426;10.868;2024-01-06T04:57:27;5.60;;;2.77;;
16832;SDS011;8533;48.426;10.868;2024-01-06T04:59:52;5.67;;;2.57;;
16832;SDS011;8533;48.426;10.868;2024-01-06T05:02:17;6.13;;;3.17;;
16832;SDS011;8533;48.426;10.868;2024-01-06T05:04:43;7.37;;;2.40;;
16832;SDS011;8533;48.426;10.868;2024-01-06T05:07:08;5.03;;;2.73;;
16832;SDS011;8533;48.426;10.868;2024-01-06T05:09:33;4.57;;;3.10;;
16832;SDS011;8533;48.426;10.868;2024-01-06T05:11:59;5.07;;;2.80;;
16832;SDS011;8533;48.426;10.868;2024-01-06T05:14:24;4.17;;;2.57;;
16832;SDS011;8533;48.426;10.868;2024-01-06T05:16:49;5.10;;;2.60;;
16832;SDS011;8533;48.426;10.868;2024-01-06T05:19:14;4.10;;;2.17;;
16832;SDS011;8533;48.426;10.868;2024-01-06T05:21:44;2.33;;;1.73;;
16832;SDS011;8533;48.426;10.868;2024-01-06T05:24:10;6.47;;;3.20;;
16832;SDS011;8533;48.426;10.868;2024-01-06T05:26:36;5.10;;;3.83;;
16832;SDS011;8533;48.426;10.868;2024-01-06T05:29:01;5.60;;;2.67;;
16832;SDS011;8533;48.426;10.868;2024-01-06T05:31:26;2.87;;;2.20;;
16832;SDS011;8533;48.426;10.868;2024-01-06T05:33:52;5.27;;;2.70;;
16832;SDS011;8533;48.426;10.868;2024-01-06T05:36:20;8.77;;;2.37;;
16832;SDS011;8533;48.426;10.868;2024-01-06T05:38:45;6.63;;;2.27;;
16832;SDS011;8533;48.426;10.868;2024-01-06T05:41:10;3.93;;;2.07;;
16832;SDS011;8533;48.426;10.868;2024-01-06T05:43:36;8.50;;;2.43;;
16832;SDS011;8533;48.426;10.868;2024-01-06T05:46:01;6.17;;;2.20;;
16832;SDS011;8533;48.426;10.868;2024-01-06T05:48:26;2.60;;;2.37;;
16832;SDS011;8533;48.426;10.868;2024-01-06T05:50:52;3.90;;;2.40;;
16832;SDS011;8533;48.426;10.868;2024-01-06T05:53:17;6.03;;;2.10;;
16832;SDS011;8533;48.426;10.868;2024-01-06T05:55:43;3.10;;;1.77;;
16832;SDS011;8533;48.426;10.868;2024-01-06T05:58:09;2.00;;;1.80;;
16832;SDS011;8533;48.426;10.868;2024-01-06T06:00:34;17.33;;;2.70;;
16832;SDS011;8533;48.426;10.868;2024-01-06T06:03:00;4.93;;;2.13;;
16832;SDS011;8533;48.426;10.868;2024-01-06T06:05:25;4.37;;;2.37;;
16832;SDS011;8533;48.426;10.868;2024-01-06T06:07:51;10.77;;;2.40;;
16832;SDS011;8533;48.426;10.868;2024-01-06T06:10:17;6.90;;;2.57;;
16832;SDS011;8533;48.426;10.868;2024-01-06T06:12:43;3.87;;;2.40;;
16832;SDS011;8533;48.426;10.868;2024-01-06T06:15:09;4.80;;;2.27;;
16832;SDS011;8533;48.426;10.868;2024-01-06T06:17:36;4.13;;;2.30;;
16832;SDS011;8533;48.426;10.868;2024-01-06T06:20:01;5.80;;;2.77;;
16832;SDS011;8533;48.426;10.868;2024-01-06T06:22:28;3.37;;;2.90;;
16832;SDS011;8533;48.426;10.868;2024-01-06T06:25:01;5.30;;;2.33;;
16832;SDS011;8533;48.426;10.868;2024-01-06T06:27:27;7.67;;;3.00;;
16832;SDS011;8533;48.426;10.868;2024-01-06T06:29:52;7.30;;;3.00;;
16832;SDS011;8533;48.426;10.868;2024-01-06T06:32:18;4.90;;;2.87;;
16832;SDS011;8533;48.426;10.868;2024-01-06T06:34:44;2.73;;;2.30;;
16832;SDS011;8533;48.426;10.868;2024-01-06T06:37:09;3.30;;;2.63;;
16832;SDS011;8533;48.426;10.868;2024-01-06T06:39:35;4.03;;;2.50;;
16832;SDS011;8533;48.426;10.868;2024-01-06T06:42:01;4.40;;;2.83;;
16832;SDS011;8533;48.426;10.868;2024-01-06T06:44:27;5.10;;;2.67;;
16832;SDS011;8533;48.426;10.868;2024-01-06T06:46:52;4.00;;;2.70;;
16832;SDS011;8533;48.426;10.868;2024-01-06T06:49:18;5.07;;;2.90;;
16832;SDS011;8533;48.426;10.868;2024-01-06T06:51:43;5.43;;;2.90;;
16832;SDS011;8533;48.426;10.868;2024-01-06T06:54:12;4.67;;;2.40;;
16832;SDS011;8533;48.426;10.868;2024-01-06T06:56:38;7.13;;;2.80;;
16832;SDS011;8533;48.426;10.868;2024-01-06T06:59:03;8.27;;;2.80;;
16832;SDS011;8533;48.426;10.868;2024-01-06T07:01:28;3.73;;;2.50;;
16832;SDS011;8533;48.426;10.868;2024-01-06T07:03:54;6.73;;;2.87;;
16832;SDS011;8533;48.426;10.868;2024-01-06T07:06:19;5.83;;;2.60;;
16832;SDS011;8533;48.426;10.868;2024-01-06T07:08:44;3.80;;;2.20;;
16832;SDS011;8533;48.426;10.868;2024-01-06T07:11:10;7.97;;;2.80;;
16832;SDS011;8533;48.426;10.868;2024-01-06T07:13:36;4.63;;;2.70;;
16832;SDS011;8533;48.426;10.868;2024-01-06T07:16:02;6.60;;;2.83;;
16832;SDS011;8533;48.426;10.868;2024-01-06T07:18:27;4.80;;;2.63;;
16832;SDS011;8533;48.426;10.868;2024-01-06T07:20:52;9.13;;;2.77;;
16832;SDS011;8533;48.426;10.868;2024-01-06T07:23:18;9.67;;;2.57;;
16832;SDS011;8533;48.426;10.868;2024-01-06T07:25:43;10.70;;;3.67;;
16832;SDS011;8533;48.426;10.868;2024-01-06T07:28:08;4.43;;;2.50;;
16832;SDS011;8533;48.426;10.868;2024-01-06T07:30:34;5.37;;;2.90;;
16832;SDS011;8533;48.426;10.868;2024-01-06T07:32:59;6.93;;;2.83;;
16832;SDS011;8533;48.426;10.868;2024-01-06T07:35:25;3.83;;;2.67;;
16832;SDS011;8533;48.426;10.868;2024-01-06T07:37:50;5.80;;;2.80;;
16832;SDS011;8533;48.426;10.868;2024-01-06T07:40:16;4.77;;;3.00;;
16832;SDS011;8533;48.426;10.868;2024-01-06T07:42:42;7.97;;;2.80;;
16832;SDS011;8533;48.426;10.868;2024-01-06T07:45:08;7.30;;;2.73;;
16832;SDS011;8533;48.426;10.868;2024-01-06T07:47:34;7.10;;;2.87;;
16832;SDS011;8533;48.426;10.868;2024-01-06T07:49:59;7.17;;;2.90;;
16832;SDS011;8533;48.426;10.868;2024-01-06T07:52:25;5.70;;;2.83;;
16832;SDS011;8533;48.426;10.868;2024-01-06T07:54:50;8.27;;;5.27;;
16832;SDS011;8533;48.426;10.868;2024-01-06T07:57:15;5.20;;;3.20;;
16832;SDS011;8533;48.426;10.868;2024-01-06T07:59:41;5.60;;;2.97;;
16832;SDS011;8533;48.426;10.868;2024-01-06T08:02:06;4.77;;;3.27;;
16832;SDS011;8533;48.426;10.868;2024-01-06T08:04:32;9.93;;;3.30;;
16832;SDS011;8533;48.426;10.868;2024-01-06T08:06:57;4.73;;;3.40;;
16832;SDS011;8533;48.426;10.868;2024-01-06T08:09:22;6.70;;;3.87;;
16832;SDS011;8533;48.426;10.868;2024-01-06T08:11:50;6.00;;;3.73;;
16832;SDS011;8533;48.426;10.868;2024-01-06T08:14:16;7.90;;;3.33;;
16832;SDS011;8533;48.426;10.868;2024-01-06T08:16:42;5.73;;;3.67;;
16832;SDS011;8533;48.426;10.868;2024-01-06T08:19:08;9.80;;;3.87;;
16832;SDS011;8533;48.426;10.868;2024-01-06T08:21:33;7.83;;;3.50;;
16832;SDS011;8533;48.426;10.868;2024-01-06T08:23:59;4.87;;;3.20;;
16832;SDS011;8533;48.426;10.868;2024-01-06T08:26:24;9.00;;;4.03;;
16832;SDS011;8533;48.426;10.868;2024-01-06T08:28:50;7.13;;;3.77;;
16832;SDS011;8533;48.426;10.868;2024-01-06T08:31:16;8.13;;;3.80;;
16832;SDS011;8533;48.426;10.868;2024-01-06T08:33:41;9.97;;;4.30;;
16832;SDS011;8533;48.426;10.868;2024-01-06T08:36:06;6.47;;;3.60;;
16832;SDS011;8533;48.426;10.868;2024-01-06T08:38:32;9.33;;;3.80;;
16832;SDS011;8533;48.426;10.868;2024-01-06T08:40:57;7.23;;;3.70;;
16832;SDS011;8533;48.426;10.868;2024-01-06T08:43:22;8.67;;;4.70;;
16832;SDS011;8533;48.426;10.868;2024-01-06T08:45:47;11.70;;;4.40;;
16832;SDS011;8533;48.426;10.868;2024-01-06T08:48:13;10.17;;;4.33;;
16832;SDS011;8533;48.426;10.868;2024-01-06T08:50:40;10.50;;;4.33;;
16832;SDS011;8533;48.426;10.868;2024-01-06T08:53:05;6.03;;;4.03;;
16832;SDS011;8533;48.426;10.868;2024-01-06T08:55:30;8.20;;;4.90;;
16832;SDS011;8533;48.426;10.868;2024-01-06T08:57:56;6.20;;;4.17;;
16832;SDS011;8533;48.426;10.868;2024-01-06T09:00:21;9.10;;;4.50;;
16832;SDS011;8533;48.426;10.868;2024-01-06T09:02:46;10.93;;;5.33;;
16832;SDS011;8533;48.426;10.868;2024-01-06T09:05:11;10.50;;;5.00;;
16832;SDS011;8533;48.426;10.868;2024-01-06T09:07:37;13.13;;;5.00;;
16832;SDS011;8533;48.426;10.868;2024-01-06T09:10:02;7.53;;;4.80;;
16832;SDS011;8533;48.426;10.868;2024-01-06T09:12:28;8.50;;;5.03;;
16832;SDS011;8533;48.426;10.868;2024-01-06T09:14:54;10.20;;;4.13;;
16832;SDS011;8533;48.426;10.868;2024-01-06T09:17:20;11.80;;;4.37;;
16832;SDS011;8533;48.426;10.868;2024-01-06T09:19:45;9.10;;;3.97;;
16832;SDS011;8533;48.426;10.868;2024-01-06T09:22:10;7.57;;;4.33;;
16832;SDS011;8533;48.426;10.868;2024-01-06T09:24:36;12.60;;;3.70;;
16832;SDS011;8533;48.426;10.868;2024-01-06T09:27:01;6.33;;;4.00;;
16832;SDS011;8533;48.426;10.868;2024-01-06T09:29:26;11.20;;;3.60;;
16832;SDS011;8533;48.426;10.868;2024-01-06T09:31:52;6.53;;;3.57;;
16832;SDS011;8533;48.426;10.868;2024-01-06T09:34:17;9.57;;;3.87;;
16832;SDS011;8533;48.426;10.868;2024-01-06T09:36:42;5.40;;;3.63;;
16832;SDS011;8533;48.426;10.868;2024-01-06T09:39:07;9.07;;;3.77;;
16832;SDS011;8533;48.426;10.868;2024-01-06T09:41:33;6.27;;;3.90;;
16832;SDS011;8533;48.426;10.868;2024-01-06T09:43:58;8.73;;;4.00;;
16832;SDS011;8533;48.426;10.868;2024-01-06T09:46:24;5.63;;;3.70;;
16832;SDS011;8533;48.426;10.868;2024-01-06T09:49:01;7.80;;;4.53;;
16832;SDS011;8533;48.426;10.868;2024-01-06T09:51:28;10.30;;;3.93;;
16832;SDS011;8533;48.426;10.868;2024-01-06T09:54:00;8.33;;;3.63;;
16832;SDS011;8533;48.426;10.868;2024-01-06T09:56:28;8.43;;;3.87;;
16832;SDS011;8533;48.426;10.868;2024-01-06T09:58:55;12.30;;;4.10;;
16832;SDS011;8533;48.426;10.868;2024-01-06T10:01:20;7.63;;;4.37;;
16832;SDS011;8533;48.426;10.868;2024-01-06T10:03:46;6.93;;;4.37;;
16832;SDS011;8533;48.426;10.868;2024-01-06T10:06:14;13.70;;;7.40;;
16832;SDS011;8533;48.426;10.868;2024-01-06T10:08:44;8.60;;;3.90;;
16832;SDS011;8533;48.426;10.868;2024-01-06T10:11:16;8.90;;;3.30;;
16832;SDS011;8533;48.426;10.868;2024-01-06T10:13:43;6.50;;;3.47;;
16832;SDS011;8533;48.426;10.868;2024-01-06T10:16:09;9.67;;;3.90;;
16832;SDS011;8533;48.426;10.868;2024-01-06T10:18:34;10.50;;;5.00;;
16832;SDS011;8533;48.426;10.868;2024-01-06T10:21:03;12.07;;;4.57;;
16832;SDS011;8533;48.426;10.868;2024-01-06T10:23:31;13.30;;;5.67;;
16832;SDS011;8533;48.426;10.868;2024-01-06T10:25:57;8.73;;;4.80;;
16832;SDS011;8533;48.426;10.868;2024-01-06T10:28:22;9.37;;;5.23;;
16832;SDS011;8533;48.426;10.868;2024-01-06T10:30:48;11.63;;;4.30;;
16832;SDS011;8533;48.426;10.868;2024-01-06T10:33:16;11.53;;;4.77;;
16832;SDS011;8533;48.426;10.868;2024-01-06T10:35:41;11.17;;;4.43;;
16832;SDS011;8533;48.426;10.868;2024-01-06T10:38:07;11.80;;;5.00;;
16832;SDS011;8533;48.426;10.868;2024-01-06T10:40:32;12.37;;;4.97;;
16832;SDS011;8533;48.426;10.868;2024-01-06T10:43:00;12.23;;;5.30;;
16832;SDS011;8533;48.426;10.868;2024-01-06T10:45:25;10.20;;;5.60;;
16832;SDS011;8533;48.426;10.868;2024-01-06T10:47:53;9.43;;;4.70;;
16832;SDS011;8533;48.426;10.868;2024-01-06T10:50:19;8.10;;;4.47;;
16832;SDS011;8533;48.426;10.868;2024-01-06T10:52:46;10.37;;;5.27;;
16832;SDS011;8533;48.426;10.868;2024-01-06T10:55:12;10.17;;;4.57;;
16832;SDS011;8533;48.426;10.868;2024-01-06T10:57:42;10.53;;;4.20;;
16832;SDS011;8533;48.426;10.868;2024-01-06T11:00:08;11.37;;;5.03;;
16832;SDS011;8533;48.426;10.868;2024-01-06T11:02:35;5.23;;;3.20;;
16832;SDS011;8533;48.426;10.868;2024-01-06T11:05:00;4.37;;;3.37;;
16832;SDS011;8533;48.426;10.868;2024-01-06T11:07:26;5.47;;;4.07;;
16832;SDS011;8533;48.426;10.868;2024-01-06T11:12:41;5.83;;;2.90;;
16832;SDS011;8533;48.426;10.868;2024-01-06T11:15:07;6.03;;;3.10;;
16832;SDS011;8533;48.426;10.868;2024-01-06T11:17:51;9.43;;;3.43;;
16832;SDS011;8533;48.426;10.868;2024-01-06T11:20:18;5.87;;;3.23;;
16832;SDS011;8533;48.426;10.868;2024-01-06T11:22:47;8.60;;;3.03;;
16832;SDS011;8533;48.426;10.868;2024-01-06T11:25:14;9.43;;;3.53;;
16832;SDS011;8533;48.426;10.868;2024-01-06T11:27:42;8.53;;;3.20;;
16832;SDS011;8533;48.426;10.868;2024-01-06T11:30:11;9.90;;;2.77;;
16832;SDS011;8533;48.426;10.868;2024-01-06T11:32:48;4.43;;;2.40;;
16832;SDS011;8533;48.426;10.868;2024-01-06T11:35:14;5.27;;;2.27;;
16832;SDS011;8533;48.426;10.868;2024-01-06T11:42:46;7.67;;;3.50;;
16832;SDS011;8533;48.426;10.868;2024-01-06T11:45:12;8.57;;;3.97;;
16832;SDS011;8533;48.426;10.868;2024-01-06T11:47:38;8.23;;;3.40;;
16832;SDS011;8533;48.426;10.868;2024-01-06T11:50:04;5.00;;;3.27;;
16832;SDS011;8533;48.426;10.868;2024-01-06T11:52:31;10.63;;;4.60;;
16832;SDS011;8533;48.426;10.868;2024-01-06T11:54:57;7.73;;;4.00;;
16832;SDS011;8533;48.426;10.868;2024-01-06T11:57:24;5.87;;;3.80;;
16832;SDS011;8533;48.426;10.868;2024-01-06T11:59:50;7.23;;;3.43;;
16832;SDS011;8533;48.426;10.868;2024-01-06T12:02:17;7.60;;;4.40;;
16832;SDS011;8533;48.426;10.868;2024-01-06T12:04:47;9.30;;;4.23;;
16832;SDS011;8533;48.426;10.868;2024-01-06T12:07:15;8.10;;;4.37;;
16832;SDS011;8533;48.426;10.868;2024-01-06T12:09:40;13.63;;;4.23;;
16832;SDS011;8533;48.426;10.868;2024-01-06T12:12:06;5.93;;;4.10;;
16832;SDS011;8533;48.426;10.868;2024-01-06T12:14:31;11.30;;;4.23;;
16832;SDS011;8533;48.426;10.868;2024-01-06T12:16:58;7.27;;;3.83;;
16832;SDS011;8533;48.426;10.868;2024-01-06T12:19:30;12.20;;;4.83;;
16832;SDS011;8533;48.426;10.868;2024-01-06T12:21:57;5.93;;;3.70;;
16832;SDS011;8533;48.426;10.868;2024-01-06T12:24:22;10.60;;;5.00;;
16832;SDS011;8533;48.426;10.868;2024-01-06T12:26:48;8.23;;;4.83;;
16832;SDS011;8533;48.426;10.868;2024-01-06T12:29:14;10.23;;;4.73;;
16832;SDS011;8533;48.426;10.868;2024-01-06T12:31:39;13.00;;;4.47;;
16832;SDS011;8533;48.426;10.868;2024-01-06T12:34:06;7.40;;;4.33;;
16832;SDS011;8533;48.426;10.868;2024-01-06T12:36:35;6.27;;;4.20;;
16832;SDS011;8533;48.426;10.868;2024-01-06T12:39:03;8.43;;;4.50;;
16832;SDS011;8533;48.426;10.868;2024-01-06T12:41:28;9.87;;;5.27;;
16832;SDS011;8533;48.426;10.868;2024-01-06T12:43:54;10.80;;;4.67;;
16832;SDS011;8533;48.426;10.868;2024-01-06T12:46:20;8.63;;;4.27;;
16832;SDS011;8533;48.426;10.868;2024-01-06T12:48:45;7.87;;;4.10;;
16832;SDS011;8533;48.426;10.868;2024-01-06T12:51:10;8.60;;;4.27;;
16832;SDS011;8533;48.426;10.868;2024-01-06T12:53:36;6.80;;;4.40;;
16832;SDS011;8533;48.426;10.868;2024-01-06T12:56:01;11.43;;;4.17;;
16832;SDS011;8533;48.426;10.868;2024-01-06T12:58:26;12.13;;;4.73;;
16832;SDS011;8533;48.426;10.868;2024-01-06T13:00:52;7.60;;;4.30;;
16832;SDS011;8533;48.426;10.868;2024-01-06T13:03:17;6.40;;;4.30;;
16832;SDS011;8533;48.426;10.868;2024-01-06T13:05:43;10.80;;;4.10;;
16832;SDS011;8533;48.426;10.868;2024-01-06T13:08:09;6.30;;;3.93;;
16832;SDS011;8533;48.426;10.868;2024-01-06T13:10:34;28.00;;;12.13;;
16832;SDS011;8533;48.426;10.868;2024-01-06T13:13:00;10.00;;;5.27;;
16832;SDS011;8533;48.426;10.868;2024-01-06T13:15:26;10.23;;;4.43;;
16832;SDS011;8533;48.426;10.868;2024-01-06T13:17:51;7.83;;;4.43;;
16832;SDS011;8533;48.426;10.868;2024-01-06T13:20:17;6.37;;;4.50;;
16832;SDS011;8533;48.426;10.868;2024-01-06T13:22:42;14.33;;;5.83;;
16832;SDS011;8533;48.426;10.868;2024-01-06T13:25:07;6.03;;;4.20;;
16832;SDS011;8533;48.426;10.868;2024-01-06T13:27:33;9.07;;;5.13;;
16832;SDS011;8533;48.426;10.868;2024-01-06T13:29:59;11.70;;;5.77;;
16832;SDS011;8533;48.426;10.868;2024-01-06T13:32:24;7.83;;;4.60;;
16832;SDS011;8533;48.426;10.868;2024-01-06T13:34:52;13.87;;;5.33;;
16832;SDS011;8533;48.426;10.868;2024-01-06T13:37:19;6.90;;;4.67;;
16832;SDS011;8533;48.426;10.868;2024-01-06T13:39:47;8.60;;;4.43;;
16832;SDS011;8533;48.426;10.868;2024-01-06T13:42:12;10.93;;;5.27;;
16832;SDS011;8533;48.426;10.868;2024-01-06T13:44:38;10.73;;;5.70;;
16832;SDS011;8533;48.426;10.868;2024-01-06T13:47:04;8.07;;;4.77;;
16832;SDS011;8533;48.426;10.868;2024-01-06T13:49:30;7.07;;;4.27;;
16832;SDS011;8533;48.426;10.868;2024-01-06T13:51:55;10.03;;;4.47;;
16832;SDS011;8533;48.426;10.868;2024-01-06T13:54:21;5.70;;;3.47;;
16832;SDS011;8533;48.426;10.868;2024-01-06T13:56:46;8.93;;;4.13;;
16832;SDS011;8533;48.426;10.868;2024-01-06T13:59:11;6.27;;;3.80;;
16832;SDS011;8533;48.426;10.868;2024-01-06T14:01:37;7.33;;;4.10;;
16832;SDS011;8533;48.426;10.868;2024-01-06T14:04:02;6.60;;;4.37;;
16832;SDS011;8533;48.426;10.868;2024-01-06T14:06:30;5.87;;;4.07;;
16832;SDS011;8533;48.426;10.868;2024-01-06T14:08:59;5.17;;;3.83;;
16832;SDS011;8533;48.426;10.868;2024-01-06T14:11:27;5.27;;;3.67;;
16832;SDS011;8533;48.426;10.868;2024-01-06T14:13:55;7.87;;;4.13;;
16832;SDS011;8533;48.426;10.868;2024-01-06T14:16:22;8.27;;;4.03;;
16832;SDS011;8533;48.426;10.868;2024-01-06T14:18:47;7.03;;;4.40;;
16832;SDS011;8533;48.426;10.868;2024-01-06T14:21:12;7.63;;;4.80;;
16832;SDS011;8533;48.426;10.868;2024-01-06T14:23:40;10.03;;;5.37;;
16832;SDS011;8533;48.426;10.868;2024-01-06T14:26:06;7.60;;;4.83;;
16832;SDS011;8533;48.426;10.868;2024-01-06T14:28:31;10.50;;;4.40;;
16832;SDS011;8533;48.426;10.868;2024-01-06T14:30:57;8.03;;;5.17;;
16832;SDS011;8533;48.426;10.868;2024-01-06T14:33:22;6.53;;;4.20;;
16832;SDS011;8533;48.426;10.868;2024-01-06T14:35:48;6.30;;;4.43;;
16832;SDS011;8533;48.426;10.868;2024-01-06T14:38:14;8.03;;;5.03;;
16832;SDS011;8533;48.426;10.868;2024-01-06T14:40:39;7.77;;;4.50;;
16832;SDS011;8533;48.426;10.868;2024-01-06T14:43:04;10.20;;;5.83;;